Airfield :







YOU CAN JOIN US ON...

 
LOGIN :

Register | Disclaimer

   EN    FR    IT 

 









Legend :    VFR   Marginal VFR   IFR   Intensive IFR   Very Intensive IFR
Visi :
Ceiling :
>= 8 km
>= 3000ft
5 to 8 km
1000 to 3000 ft
1500m to 5 km
500 to 1000 ft
800 to 1500m
200 to 500 ft
< 800m
< 200 ft
Symbols :   Thunderstorms  Fog  Heavy snow  Heavy precipitations  Wind > 20 kt







- Airport Elevation : 488 ft
- IATA code : EEN


KEEN - Dillant Hopkins

CURRENT METAR :
  • 160556Z AUTO 00000KT 10SM SCT050 14/13 A3006 RMK AO2 SLP181 T01390133 10172 20139 55000 $

EXPIRED METARs :
  • 160456Z AUTO 00000KT 10SM BKN050 OVC090 15/13 A3006 RMK AO2 SLP181 T01500133 402390117 $
  • 160356Z AUTO 22004KT 10SM BKN050 BKN060 OVC090 16/14 A3005 RMK AO2 SLP179 T01560139 $

TAF N/A
No reported NOTAMs for that airfield.



MET'MAP, your aeronautical weather chart ! - Copyright ORBIFLY December 2007 - Disclaimer

ORBIFLY MET'MAP TEAM :

Programming & Development : Alexandra Zaïnal
Concept & Development : Baudouin d'Aumeries
Co-Development & Prog : Marc-Olivier Méhu
Technical & hardware support : Manuel Goepfert

Contact : metmap@orbifly.com




SOURCES & CREDITS :

   NOAA